createdAt,value
2019-02-02T00:00:03.364Z,12.47
2019-02-02T00:05:02.371Z,9.00
2019-02-02T00:10:02.819Z,9.73
2019-02-02T00:15:03.270Z,8.77
2019-02-02T00:20:02.601Z,8.70
2019-02-02T00:25:03.063Z,9.43
2019-02-02T00:30:02.478Z,8.80
2019-02-02T00:35:02.896Z,9.13
2019-02-02T00:40:03.295Z,9.83
2019-02-02T00:45:02.637Z,9.60
2019-02-02T00:50:02.988Z,12.83
2019-02-02T00:55:02.415Z,11.47
2019-02-02T01:00:02.844Z,10.93
2019-02-02T01:05:02.679Z,12.00
2019-02-02T01:10:03.226Z,11.13
2019-02-02T01:15:02.547Z,14.70
2019-02-02T01:20:02.990Z,11.93
2019-02-02T01:25:02.408Z,11.33
2019-02-02T01:30:02.849Z,11.77
2019-02-02T01:35:03.219Z,11.77
2019-02-02T01:40:02.737Z,11.30
2019-02-02T01:45:03.170Z,10.07
2019-02-02T01:50:02.561Z,10.30
2019-02-02T01:55:02.915Z,11.33
2019-02-02T02:00:03.259Z,12.03
2019-02-02T02:05:02.666Z,10.90
2019-02-02T02:10:03.208Z,9.63
2019-02-02T02:15:02.532Z,9.67
2019-02-02T02:20:02.871Z,9.93
2019-02-02T02:25:03.219Z,9.77
2019-02-02T02:30:02.641Z,11.67
2019-02-02T02:35:03.107Z,11.20
2019-02-02T02:40:02.604Z,10.50
2019-02-02T02:45:02.944Z,12.67
2019-02-02T02:50:03.287Z,11.37
2019-02-02T02:55:02.701Z,11.73
2019-02-02T03:00:03.048Z,13.20
2019-02-02T03:05:02.386Z,12.30
2019-02-02T03:10:02.853Z,11.87
2019-02-02T03:15:03.256Z,13.93
2019-02-02T03:20:02.661Z,13.43
2019-02-02T03:25:02.190Z,0
2019-02-02T03:30:02.634Z,16.40
2019-02-02T03:35:03.110Z,12.40
2019-02-02T03:40:02.639Z,11.93
2019-02-02T03:45:03.035Z,14.63
2019-02-02T03:50:02.455Z,12.37
2019-02-02T03:55:02.796Z,15.63
2019-02-02T04:00:03.139Z,16.07
2019-02-02T04:05:02.547Z,13.53
2019-02-02T04:10:03.003Z,17.33
2019-02-02T04:15:02.420Z,11.80
2019-02-02T04:20:02.761Z,14.13
2019-02-02T04:25:03.101Z,10.83
2019-02-02T04:30:02.516Z,12.67
2019-02-02T04:35:02.868Z,12.47
2019-02-02T04:40:03.309Z,15.80
2019-02-02T04:45:02.717Z,13.17
2019-02-02T04:50:03.099Z,15.17
2019-02-02T04:55:02.485Z,13.37
2019-02-02T05:00:02.933Z,15.37
2019-02-02T05:05:03.372Z,15.67
2019-02-02T05:10:02.784Z,13.13
2019-02-02T05:15:03.148Z,12.00
2019-02-02T05:20:02.548Z,15.77
2019-02-02T05:25:02.907Z,12.57
2019-02-02T05:30:03.029Z,13.43
2019-02-02T05:35:02.464Z,13.53
2019-02-02T05:40:02.891Z,15.83
2019-02-02T05:45:03.463Z,14.50
2019-02-02T05:50:02.813Z,14.87
2019-02-02T05:55:03.196Z,12.63
2019-02-02T06:00:02.612Z,14.07
2019-02-02T06:05:03.011Z,13.77
2019-02-02T06:10:02.413Z,15.40
2019-02-02T06:15:02.836Z,13.83
2019-02-02T06:20:03.305Z,17.07
2019-02-02T06:25:02.713Z,14.17
2019-02-02T06:30:04.489Z,16.13
2019-02-02T06:35:03.730Z,15.33
2019-02-02T06:40:02.388Z,0
2019-02-02T06:45:02.715Z,16.40
2019-02-02T06:50:03.196Z,17.17
2019-02-02T06:55:02.602Z,21.37
2019-02-02T07:00:03.012Z,16.67
2019-02-02T07:05:02.436Z,16.73
2019-02-02T07:10:02.843Z,15.50
2019-02-02T07:15:03.234Z,14.93
2019-02-02T07:20:02.572Z,17.90
2019-02-02T07:25:02.990Z,15.40
2019-02-02T07:30:05.057Z,17.20
2019-02-02T07:35:02.641Z,16.43
2019-02-02T07:40:03.084Z,18.83
2019-02-02T07:45:02.663Z,17.00
2019-02-02T07:50:03.053Z,14.03
2019-02-02T07:55:02.472Z,15.57
2019-02-02T08:00:02.885Z,17.63
2019-02-02T08:05:03.252Z,16.80
2019-02-02T08:10:02.667Z,18.03
2019-02-02T08:15:03.036Z,14.53
2019-02-02T08:20:02.433Z,18.40
2019-02-02T08:25:02.778Z,16.47
2019-02-02T08:30:03.109Z,19.57
2019-02-02T08:35:02.530Z,17.80
2019-02-02T08:40:02.977Z,15.87
2019-02-02T08:45:02.406Z,17.03
2019-02-02T08:50:02.857Z,19.60
2019-02-02T08:55:03.372Z,15.57
2019-02-02T09:00:02.802Z,20.00
2019-02-02T09:05:03.591Z,19.30
2019-02-02T09:10:02.197Z,0
2019-02-02T09:15:02.629Z,18.97
2019-02-02T09:20:03.085Z,21.00
2019-02-02T09:25:02.451Z,31.43
2019-02-02T09:30:02.903Z,62.83
2019-02-02T09:35:03.360Z,28.23
2019-02-02T09:40:02.862Z,22.00
2019-02-02T09:45:03.209Z,20.83
2019-02-02T09:50:02.623Z,30.03
2019-02-02T09:55:02.970Z,27.90
2019-02-02T10:00:02.386Z,24.57
2019-02-02T10:05:02.830Z,22.03
2019-02-02T10:10:03.342Z,27.47
2019-02-02T10:15:02.721Z,27.37
2019-02-02T10:20:03.069Z,23.43
2019-02-02T10:25:02.457Z,25.77
2019-02-02T10:30:02.792Z,17.80
2019-02-02T10:35:03.141Z,21.07
2019-02-02T10:40:02.555Z,28.70
2019-02-02T10:45:03.005Z,27.87
2019-02-02T10:50:02.421Z,30.73
2019-02-02T10:55:02.878Z,20.73
2019-02-02T11:00:03.320Z,26.17
2019-02-02T11:05:02.716Z,22.10
2019-02-02T11:10:03.396Z,24.87
2019-02-02T11:15:02.857Z,27.47
2019-02-02T11:20:03.318Z,30.43
2019-02-02T11:25:02.666Z,26.67
2019-02-02T11:30:03.265Z,31.63
2019-02-02T11:35:02.733Z,31.00
2019-02-02T11:40:03.135Z,40.17
2019-02-02T11:45:02.580Z,25.57
2019-02-02T11:50:03.029Z,25.53
2019-02-02T11:55:02.485Z,23.37
2019-02-02T12:00:02.892Z,22.90
2019-02-02T12:05:02.530Z,0
2019-02-02T12:10:02.954Z,29.70
2019-02-02T12:15:03.458Z,25.27
2019-02-02T12:20:02.808Z,32.20
2019-02-02T12:25:03.163Z,26.80
2019-02-02T12:30:02.572Z,23.57
2019-02-02T12:35:04.769Z,21.87
2019-02-02T12:40:03.347Z,23.03
2019-02-02T12:45:02.924Z,22.23
2019-02-02T12:50:03.330Z,21.47
2019-02-02T12:55:02.750Z,23.33
2019-02-02T13:00:03.112Z,30.37
2019-02-02T13:05:02.545Z,26.17
2019-02-02T13:10:02.952Z,25.43
2019-02-02T13:15:03.447Z,25.43
2019-02-02T13:20:02.807Z,24.00
2019-02-02T13:25:03.204Z,28.63
2019-02-02T13:30:02.543Z,21.13
2019-02-02T13:35:02.886Z,25.47
2019-02-02T13:40:03.759Z,26.20
2019-02-02T13:45:03.235Z,27.83
2019-02-02T13:50:02.588Z,23.43
2019-02-02T13:55:02.998Z,22.57
2019-02-02T14:00:02.404Z,29.33
2019-02-02T14:05:02.819Z,20.00
2019-02-02T14:10:03.260Z,21.63
2019-02-02T14:15:02.678Z,31.77
2019-02-02T14:20:03.009Z,34.90
2019-02-02T14:25:02.458Z,32.80
2019-02-02T14:30:02.804Z,26.27
2019-02-02T14:35:03.282Z,26.50
2019-02-02T14:40:01.892Z,0
2019-02-02T14:45:03.286Z,23.07
2019-02-02T14:50:02.712Z,24.63
2019-02-02T14:55:03.041Z,25.17
2019-02-02T15:00:02.459Z,27.10
2019-02-02T15:05:02.800Z,25.60
2019-02-02T15:10:03.426Z,19.30
2019-02-02T15:15:05.745Z,27.07
2019-02-02T15:20:03.315Z,27.83
2019-02-02T15:25:02.731Z,29.33
2019-02-02T15:30:03.182Z,20.77
2019-02-02T15:35:02.588Z,21.70
2019-02-02T15:40:03.038Z,21.73
2019-02-02T15:45:02.443Z,29.97
2019-02-02T15:50:02.795Z,24.43
2019-02-02T15:55:03.143Z,19.77
2019-02-02T16:00:02.548Z,21.07
2019-02-02T16:05:04.555Z,21.33
2019-02-02T16:10:03.144Z,19.43
2019-02-02T16:15:02.581Z,21.97
2019-02-02T16:20:03.038Z,16.57
2019-02-02T16:25:02.465Z,19.97
2019-02-02T16:30:02.853Z,21.33
2019-02-02T16:35:03.311Z,24.70
2019-02-02T16:40:02.720Z,25.37
2019-02-02T16:45:03.069Z,24.80
2019-02-02T16:50:02.482Z,27.17
2019-02-02T16:55:02.938Z,20.37
2019-02-02T17:00:03.392Z,22.83
2019-02-02T17:05:02.789Z,26.67
2019-02-02T17:10:03.233Z,26.50
2019-02-02T17:15:02.657Z,27.70
2019-02-02T17:20:03.096Z,22.70
2019-02-02T17:25:02.423Z,28.53
2019-02-02T17:30:02.895Z,19.50
2019-02-02T17:35:03.371Z,21.17
2019-02-02T17:40:02.817Z,26.20
2019-02-02T17:45:03.164Z,23.30
2019-02-02T17:50:02.585Z,28.30
2019-02-02T17:55:03.029Z,25.07
2019-02-02T18:00:02.445Z,31.57
2019-02-02T18:05:02.886Z,21.60
2019-02-02T18:10:03.332Z,23.00
2019-02-02T18:15:02.761Z,23.27
2019-02-02T18:20:03.198Z,28.37
2019-02-02T18:25:02.641Z,25.33
2019-02-02T18:30:03.062Z,24.53
2019-02-02T18:35:02.494Z,26.03
2019-02-02T18:40:02.926Z,22.50
2019-02-02T18:45:03.375Z,24.50
2019-02-02T18:50:02.774Z,19.73
2019-02-02T18:55:03.153Z,19.83
2019-02-02T19:00:02.551Z,23.10
2019-02-02T19:05:04.244Z,18.17
2019-02-02T19:10:02.425Z,0
2019-02-02T19:15:02.874Z,22.30
2019-02-02T19:20:03.294Z,19.40
2019-02-02T19:25:02.735Z,21.50
2019-02-02T19:30:03.164Z,26.03
2019-02-02T19:35:02.584Z,28.37
2019-02-02T19:40:03.024Z,22.47
2019-02-02T19:45:02.445Z,17.30
2019-02-02T19:50:02.870Z,19.43
2019-02-02T19:55:14.023Z,20.97
2019-02-02T20:00:03.191Z,21.80
2019-02-02T20:05:02.563Z,28.47
2019-02-02T20:10:03.009Z,22.40
2019-02-02T20:15:02.446Z,30.53
2019-02-02T20:20:02.904Z,30.40
2019-02-02T20:25:03.316Z,28.43
2019-02-02T20:30:02.741Z,26.33
2019-02-02T20:35:03.183Z,28.90
2019-02-02T20:40:02.618Z,36.50
2019-02-02T20:45:02.989Z,34.57
2019-02-02T20:50:02.367Z,28.43
2019-02-02T20:55:02.817Z,33.07
2019-02-02T21:00:03.269Z,33.37
2019-02-02T21:05:02.714Z,27.27
2019-02-02T21:10:03.211Z,26.67
2019-02-02T21:15:02.636Z,26.90
2019-02-02T21:20:03.111Z,29.70
2019-02-02T21:25:02.508Z,28.20
2019-02-02T21:30:02.928Z,34.47
2019-02-02T21:35:03.391Z,26.80
2019-02-02T21:40:02.789Z,30.27
2019-02-02T21:45:03.244Z,24.43
2019-02-02T21:50:02.654Z,23.37
2019-02-02T21:55:03.013Z,23.00
2019-02-02T22:00:02.420Z,21.77
2019-02-02T22:05:02.868Z,23.33
2019-02-02T22:10:03.331Z,22.77
2019-02-02T22:15:02.735Z,21.10
2019-02-02T22:20:02.457Z,25.20
2019-02-02T22:25:02.901Z,21.97
2019-02-02T22:30:03.359Z,21.73
2019-02-02T22:35:02.787Z,22.37
2019-02-02T22:40:02.503Z,0
2019-02-02T22:45:03.144Z,20.67
2019-02-02T22:50:02.538Z,21.93
2019-02-02T22:55:02.896Z,20.00
2019-02-02T23:00:03.261Z,22.93
2019-02-02T23:05:02.644Z,18.67
2019-02-02T23:10:01.672Z,0
2019-02-02T23:15:03.031Z,22.27
2019-02-02T23:20:02.448Z,20.17
2019-02-02T23:25:02.889Z,20.77
2019-02-02T23:30:02.528Z,0
2019-02-02T23:35:03.261Z,28.53
2019-02-02T23:40:02.670Z,23.40
2019-02-02T23:45:03.027Z,19.03
2019-02-02T23:50:02.449Z,21.90
2019-02-02T23:55:02.886Z,22.37
